Shields, Illinois
Current Conditions -  °F | °C
As of 6:55 AM on Sunday 21 Dec 2014 (Local Time) from KMVN Reporting Station
Overcast Overcast  
Wind Chill: 30°   Ceiling: 2800
Heat Index: 30°   Visibility: 7mi
Dew Point: 25°   Wind: 0mph
Humidity: 80%   Direction: NA
Pressure: 30.27"   Gusts: NA
Location:  38.3716°N, 88.6497°W
Report Text: KMVN 211255Z AUTO 00000KT 7SM OVC028 M01/M04 A3027 RMK AO1
Loading
Personal Weather Stations






























Interactive Weather Map New forecast layout! Learn more

10-Day Weather Forecast

Advertisements
Track Severe Weather on mobile